sensor_id;sensor_type;location;lat;lon;timestamp;temperature;humidity
22629;DHT22;11481;53.694;9.910;2023-04-01T00:01:48;11.90;99.90
22629;DHT22;11481;53.694;9.910;2023-04-01T00:04:15;11.90;99.90
22629;DHT22;11481;53.694;9.910;2023-04-01T00:06:42;11.90;99.90
22629;DHT22;11481;53.694;9.910;2023-04-01T00:09:09;11.90;99.90
22629;DHT22;11481;53.694;9.910;2023-04-01T00:11:35;11.90;99.90
22629;DHT22;11481;53.694;9.910;2023-04-01T00:14:02;11.90;99.90
22629;DHT22;11481;53.694;9.910;2023-04-01T00:16:29;11.90;99.90
22629;DHT22;11481;53.694;9.910;2023-04-01T00:18:55;11.90;99.90
22629;DHT22;11481;53.694;9.910;2023-04-01T00:21:22;11.80;99.90
22629;DHT22;11481;53.694;9.910;2023-04-01T00:23:50;11.90;99.90
22629;DHT22;11481;53.694;9.910;2023-04-01T00:26:18;11.90;99.90
22629;DHT22;11481;53.694;9.910;2023-04-01T00:28:48;11.90;99.90
22629;DHT22;11481;53.694;9.910;2023-04-01T00:31:15;11.90;99.90
22629;DHT22;11481;53.694;9.910;2023-04-01T00:33:42;11.90;99.90
22629;DHT22;11481;53.694;9.910;2023-04-01T00:36:11;11.80;99.90
22629;DHT22;11481;53.694;9.910;2023-04-01T00:38:38;11.80;99.90
22629;DHT22;11481;53.694;9.910;2023-04-01T00:41:05;11.80;99.90
22629;DHT22;11481;53.694;9.910;2023-04-01T00:43:33;11.80;99.90
22629;DHT22;11481;53.694;9.910;2023-04-01T00:46:00;11.80;99.90
22629;DHT22;11481;53.694;9.910;2023-04-01T00:48:31;11.90;99.90
22629;DHT22;11481;53.694;9.910;2023-04-01T00:51:13;11.80;99.90
22629;DHT22;11481;53.694;9.910;2023-04-01T00:53:45;11.80;99.90
22629;DHT22;11481;53.694;9.910;2023-04-01T00:56:17;11.80;99.90
22629;DHT22;11481;53.694;9.910;2023-04-01T00:58:49;11.80;99.90
22629;DHT22;11481;53.694;9.910;2023-04-01T01:01:16;11.80;99.90
22629;DHT22;11481;53.694;9.910;2023-04-01T01:03:44;11.80;99.90
22629;DHT22;11481;53.694;9.910;2023-04-01T01:06:58;11.80;99.90
22629;DHT22;11481;53.694;9.910;2023-04-01T01:09:55;11.80;99.90
22629;DHT22;11481;53.694;9.910;2023-04-01T01:12:10;11.80;99.90
22629;DHT22;11481;53.694;9.910;2023-04-01T01:15:00;11.80;99.90
22629;DHT22;11481;53.694;9.910;2023-04-01T01:17:48;11.80;99.90
22629;DHT22;11481;53.694;9.910;2023-04-01T01:20:48;11.80;99.90
22629;DHT22;11481;53.694;9.910;2023-04-01T01:37:12;11.80;99.90
22629;DHT22;11481;53.694;9.910;2023-04-01T01:39:43;11.70;99.90
22629;DHT22;11481;53.694;9.910;2023-04-01T01:42:14;11.70;99.90
22629;DHT22;11481;53.694;9.910;2023-04-01T01:44:44;11.80;99.90
22629;DHT22;11481;53.694;9.910;2023-04-01T01:47:14;11.70;99.90
22629;DHT22;11481;53.694;9.910;2023-04-01T01:49:42;11.70;99.90
22629;DHT22;11481;53.694;9.910;2023-04-01T01:52:11;11.70;99.90
22629;DHT22;11481;53.694;9.910;2023-04-01T01:54:56;11.70;99.90
22629;DHT22;11481;53.694;9.910;2023-04-01T01:57:30;11.70;99.90
22629;DHT22;11481;53.694;9.910;2023-04-01T02:00:02;11.70;99.90
22629;DHT22;11481;53.694;9.910;2023-04-01T02:02:34;11.60;99.90
22629;DHT22;11481;53.694;9.910;2023-04-01T02:05:03;11.70;99.90
22629;DHT22;11481;53.694;9.910;2023-04-01T02:07:33;11.70;99.90
22629;DHT22;11481;53.694;9.910;2023-04-01T02:10:03;11.70;99.90
22629;DHT22;11481;53.694;9.910;2023-04-01T02:12:30;11.70;99.90
22629;DHT22;11481;53.694;9.910;2023-04-01T02:15:08;11.70;99.90
22629;DHT22;11481;53.694;9.910;2023-04-01T02:17:39;11.70;99.90
22629;DHT22;11481;53.694;9.910;2023-04-01T02:20:13;11.70;99.90
22629;DHT22;11481;53.694;9.910;2023-04-01T02:22:44;11.70;99.90
22629;DHT22;11481;53.694;9.910;2023-04-01T02:25:15;11.70;99.90
22629;DHT22;11481;53.694;9.910;2023-04-01T02:27:43;11.60;99.90
22629;DHT22;11481;53.694;9.910;2023-04-01T02:30:12;11.70;99.90
22629;DHT22;11481;53.694;9.910;2023-04-01T02:32:40;11.60;99.90
22629;DHT22;11481;53.694;9.910;2023-04-01T02:35:13;11.70;99.90
22629;DHT22;11481;53.694;9.910;2023-04-01T02:37:40;11.60;99.90
22629;DHT22;11481;53.694;9.910;2023-04-01T02:40:11;11.60;99.90
22629;DHT22;11481;53.694;9.910;2023-04-01T02:42:38;11.60;99.90
22629;DHT22;11481;53.694;9.910;2023-04-01T02:45:06;12.40;99.90
22629;DHT22;11481;53.694;9.910;2023-04-01T02:47:32;11.60;99.90
22629;DHT22;11481;53.694;9.910;2023-04-01T02:49:59;11.60;99.90
22629;DHT22;11481;53.694;9.910;2023-04-01T02:52:27;11.60;99.90
22629;DHT22;11481;53.694;9.910;2023-04-01T02:54:54;11.50;99.90
22629;DHT22;11481;53.694;9.910;2023-04-01T02:57:21;11.60;99.90
22629;DHT22;11481;53.694;9.910;2023-04-01T02:59:48;11.60;99.90
22629;DHT22;11481;53.694;9.910;2023-04-01T03:02:17;11.60;99.90
22629;DHT22;11481;53.694;9.910;2023-04-01T03:04:43;11.60;99.90
22629;DHT22;11481;53.694;9.910;2023-04-01T03:07:10;11.60;99.90
22629;DHT22;11481;53.694;9.910;2023-04-01T03:09:37;11.60;99.90
22629;DHT22;11481;53.694;9.910;2023-04-01T03:12:04;11.60;99.90
22629;DHT22;11481;53.694;9.910;2023-04-01T03:14:31;11.60;99.90
22629;DHT22;11481;53.694;9.910;2023-04-01T03:16:58;11.60;99.90
22629;DHT22;11481;53.694;9.910;2023-04-01T03:19:25;11.60;99.90
22629;DHT22;11481;53.694;9.910;2023-04-01T03:21:52;11.60;99.90
22629;DHT22;11481;53.694;9.910;2023-04-01T03:24:20;11.60;99.90
22629;DHT22;11481;53.694;9.910;2023-04-01T03:26:46;11.60;99.90
22629;DHT22;11481;53.694;9.910;2023-04-01T03:29:13;11.60;99.90
22629;DHT22;11481;53.694;9.910;2023-04-01T03:31:42;11.60;99.90
22629;DHT22;11481;53.694;9.910;2023-04-01T03:34:09;11.60;99.90
22629;DHT22;11481;53.694;9.910;2023-04-01T03:36:36;11.60;99.90
22629;DHT22;11481;53.694;9.910;2023-04-01T03:39:03;11.50;99.90
22629;DHT22;11481;53.694;9.910;2023-04-01T03:41:32;11.50;99.90
22629;DHT22;11481;53.694;9.910;2023-04-01T03:44:01;11.50;99.90
22629;DHT22;11481;53.694;9.910;2023-04-01T03:46:28;11.50;99.90
22629;DHT22;11481;53.694;9.910;2023-04-01T03:48:55;11.50;99.90
22629;DHT22;11481;53.694;9.910;2023-04-01T03:51:24;11.50;99.90
22629;DHT22;11481;53.694;9.910;2023-04-01T03:53:52;11.50;99.90
22629;DHT22;11481;53.694;9.910;2023-04-01T03:56:19;11.50;99.90
22629;DHT22;11481;53.694;9.910;2023-04-01T03:58:46;11.60;99.90
22629;DHT22;11481;53.694;9.910;2023-04-01T04:01:20;11.50;99.90
22629;DHT22;11481;53.694;9.910;2023-04-01T04:03:48;11.60;99.90
22629;DHT22;11481;53.694;9.910;2023-04-01T04:06:18;11.80;99.90
22629;DHT22;11481;53.694;9.910;2023-04-01T04:08:45;11.40;99.90
22629;DHT22;11481;53.694;9.910;2023-04-01T04:11:12;11.20;99.90
22629;DHT22;11481;53.694;9.910;2023-04-01T04:13:39;11.10;99.90
22629;DHT22;11481;53.694;9.910;2023-04-01T04:16:06;10.90;99.90
22629;DHT22;11481;53.694;9.910;2023-04-01T04:18:33;10.80;99.90
22629;DHT22;11481;53.694;9.910;2023-04-01T04:21:00;10.70;99.90
22629;DHT22;11481;53.694;9.910;2023-04-01T04:23:26;10.60;99.90
22629;DHT22;11481;53.694;9.910;2023-04-01T04:25:57;10.60;99.90
22629;DHT22;11481;53.694;9.910;2023-04-01T04:28:25;10.60;99.90
22629;DHT22;11481;53.694;9.910;2023-04-01T04:30:53;10.50;99.90
22629;DHT22;11481;53.694;9.910;2023-04-01T04:33:21;10.50;99.90
22629;DHT22;11481;53.694;9.910;2023-04-01T04:35:48;10.40;99.90
22629;DHT22;11481;53.694;9.910;2023-04-01T04:38:15;10.30;99.90
22629;DHT22;11481;53.694;9.910;2023-04-01T04:40:42;10.20;99.90
22629;DHT22;11481;53.694;9.910;2023-04-01T04:43:11;10.10;99.90
22629;DHT22;11481;53.694;9.910;2023-04-01T04:45:39;10.10;99.90
22629;DHT22;11481;53.694;9.910;2023-04-01T04:48:11;10.10;99.90
22629;DHT22;11481;53.694;9.910;2023-04-01T04:50:42;10.10;99.90
22629;DHT22;11481;53.694;9.910;2023-04-01T04:53:10;9.90;99.90
22629;DHT22;11481;53.694;9.910;2023-04-01T04:55:37;9.90;99.90
22629;DHT22;11481;53.694;9.910;2023-04-01T04:58:04;9.80;99.90
22629;DHT22;11481;53.694;9.910;2023-04-01T05:00:32;9.70;99.90
22629;DHT22;11481;53.694;9.910;2023-04-01T05:02:59;9.70;99.90
22629;DHT22;11481;53.694;9.910;2023-04-01T05:05:26;9.70;99.90
22629;DHT22;11481;53.694;9.910;2023-04-01T05:07:53;9.70;99.90
22629;DHT22;11481;53.694;9.910;2023-04-01T05:10:20;9.60;99.90
22629;DHT22;11481;53.694;9.910;2023-04-01T05:12:47;9.60;99.90
22629;DHT22;11481;53.694;9.910;2023-04-01T05:15:13;10.80;99.90
22629;DHT22;11481;53.694;9.910;2023-04-01T05:17:41;9.60;99.90
22629;DHT22;11481;53.694;9.910;2023-04-01T05:20:09;9.50;99.90
22629;DHT22;11481;53.694;9.910;2023-04-01T05:22:36;9.40;99.90
22629;DHT22;11481;53.694;9.910;2023-04-01T05:25:03;9.50;99.90
22629;DHT22;11481;53.694;9.910;2023-04-01T05:27:29;9.40;99.90
22629;DHT22;11481;53.694;9.910;2023-04-01T05:29:56;9.30;99.90
22629;DHT22;11481;53.694;9.910;2023-04-01T05:32:23;9.30;99.90
22629;DHT22;11481;53.694;9.910;2023-04-01T05:34:51;9.20;99.90
22629;DHT22;11481;53.694;9.910;2023-04-01T05:37:17;9.30;99.90
22629;DHT22;11481;53.694;9.910;2023-04-01T05:39:45;9.30;99.90
22629;DHT22;11481;53.694;9.910;2023-04-01T05:42:12;9.40;99.90
22629;DHT22;11481;53.694;9.910;2023-04-01T05:44:39;9.30;99.90
22629;DHT22;11481;53.694;9.910;2023-04-01T05:47:05;9.30;99.90
22629;DHT22;11481;53.694;9.910;2023-04-01T05:49:34;9.30;99.90
22629;DHT22;11481;53.694;9.910;2023-04-01T05:52:01;9.20;99.90
22629;DHT22;11481;53.694;9.910;2023-04-01T05:54:29;9.10;99.90
22629;DHT22;11481;53.694;9.910;2023-04-01T05:56:56;9.10;99.90
22629;DHT22;11481;53.694;9.910;2023-04-01T05:59:22;9.10;99.90
22629;DHT22;11481;53.694;9.910;2023-04-01T06:01:49;9.00;99.90
22629;DHT22;11481;53.694;9.910;2023-04-01T06:04:17;9.00;99.90
22629;DHT22;11481;53.694;9.910;2023-04-01T06:06:45;9.00;99.90
22629;DHT22;11481;53.694;9.910;2023-04-01T06:09:16;9.00;99.90
22629;DHT22;11481;53.694;9.910;2023-04-01T06:17:26;8.70;99.90
22629;DHT22;11481;53.694;9.910;2023-04-01T06:20:30;8.60;99.90
22629;DHT22;11481;53.694;9.910;2023-04-01T06:25:45;8.60;99.90
22629;DHT22;11481;53.694;9.910;2023-04-01T06:42:34;8.60;99.90
22629;DHT22;11481;53.694;9.910;2023-04-01T06:45:22;8.50;99.90
22629;DHT22;11481;53.694;9.910;2023-04-01T06:56:18;8.30;99.90
22629;DHT22;11481;53.694;9.910;2023-04-01T06:58:51;8.20;99.90
22629;DHT22;11481;53.694;9.910;2023-04-01T07:04:03;8.20;99.90
22629;DHT22;11481;53.694;9.910;2023-04-01T07:06:54;8.20;99.90
22629;DHT22;11481;53.694;9.910;2023-04-01T07:09:26;8.10;99.90
22629;DHT22;11481;53.694;9.910;2023-04-01T07:12:02;8.10;99.90
22629;DHT22;11481;53.694;9.910;2023-04-01T07:14:35;8.00;99.90
22629;DHT22;11481;53.694;9.910;2023-04-01T07:17:21;8.10;99.90
22629;DHT22;11481;53.694;9.910;2023-04-01T07:22:40;8.10;99.90
22629;DHT22;11481;53.694;9.910;2023-04-01T07:25:39;8.10;99.90
22629;DHT22;11481;53.694;9.910;2023-04-01T07:28:15;8.20;99.90
22629;DHT22;11481;53.694;9.910;2023-04-01T07:31:07;8.10;99.90
22629;DHT22;11481;53.694;9.910;2023-04-01T07:42:07;7.90;99.90
22629;DHT22;11481;53.694;9.910;2023-04-01T07:50:53;7.90;99.90
22629;DHT22;11481;53.694;9.910;2023-04-01T07:53:36;8.00;99.90
22629;DHT22;11481;53.694;9.910;2023-04-01T07:56:25;8.10;99.90
22629;DHT22;11481;53.694;9.910;2023-04-01T07:59:17;8.00;99.90
22629;DHT22;11481;53.694;9.910;2023-04-01T08:02:21;7.90;99.90
22629;DHT22;11481;53.694;9.910;2023-04-01T08:08:16;8.00;99.90
22629;DHT22;11481;53.694;9.910;2023-04-01T08:11:06;8.10;99.90
22629;DHT22;11481;53.694;9.910;2023-04-01T08:13:45;8.00;99.90
22629;DHT22;11481;53.694;9.910;2023-04-01T08:16:23;8.00;99.90
22629;DHT22;11481;53.694;9.910;2023-04-01T08:19:15;8.10;99.90
22629;DHT22;11481;53.694;9.910;2023-04-01T08:21:49;8.00;99.90
22629;DHT22;11481;53.694;9.910;2023-04-01T08:24:38;7.90;99.90
22629;DHT22;11481;53.694;9.910;2023-04-01T08:27:44;7.90;99.90
22629;DHT22;11481;53.694;9.910;2023-04-01T08:30:25;7.80;99.90
22629;DHT22;11481;53.694;9.910;2023-04-01T08:33:48;7.90;99.90
22629;DHT22;11481;53.694;9.910;2023-04-01T08:36:24;7.90;99.90
22629;DHT22;11481;53.694;9.910;2023-04-01T08:52:33;7.90;99.90
22629;DHT22;11481;53.694;9.910;2023-04-01T08:55:20;8.00;99.90
22629;DHT22;11481;53.694;9.910;2023-04-01T08:58:55;7.90;99.90
22629;DHT22;11481;53.694;9.910;2023-04-01T09:04:12;8.00;99.90
22629;DHT22;11481;53.694;9.910;2023-04-01T09:12:58;7.90;99.90
22629;DHT22;11481;53.694;9.910;2023-04-01T09:15:28;7.90;99.90
22629;DHT22;11481;53.694;9.910;2023-04-01T09:23:57;8.30;99.90
22629;DHT22;11481;53.694;9.910;2023-04-01T09:26:34;8.30;99.90
22629;DHT22;11481;53.694;9.910;2023-04-01T09:31:43;8.20;99.90
22629;DHT22;11481;53.694;9.910;2023-04-01T09:37:21;8.20;99.90
22629;DHT22;11481;53.694;9.910;2023-04-01T09:39:55;8.20;99.90
22629;DHT22;11481;53.694;9.910;2023-04-01T09:42:52;8.30;99.90
22629;DHT22;11481;53.694;9.910;2023-04-01T09:45:43;8.10;99.90
22629;DHT22;11481;53.694;9.910;2023-04-01T09:48:35;8.00;99.90
22629;DHT22;11481;53.694;9.910;2023-04-01T09:51:27;8.10;99.90
22629;DHT22;11481;53.694;9.910;2023-04-01T09:56:51;8.10;99.90
22629;DHT22;11481;53.694;9.910;2023-04-01T10:10:47;8.30;99.90
22629;DHT22;11481;53.694;9.910;2023-04-01T10:19:13;8.40;99.90
22629;DHT22;11481;53.694;9.910;2023-04-01T10:27:21;8.40;99.90
22629;DHT22;11481;53.694;9.910;2023-04-01T10:30:28;8.20;99.90
22629;DHT22;11481;53.694;9.910;2023-04-01T10:33:12;8.30;99.90
22629;DHT22;11481;53.694;9.910;2023-04-01T10:38:55;8.40;99.90
22629;DHT22;11481;53.694;9.910;2023-04-01T10:41:49;8.40;99.90
22629;DHT22;11481;53.694;9.910;2023-04-01T10:47:48;8.40;99.90
22629;DHT22;11481;53.694;9.910;2023-04-01T10:56:15;8.30;99.90
22629;DHT22;11481;53.694;9.910;2023-04-01T11:02:20;8.40;99.90
22629;DHT22;11481;53.694;9.910;2023-04-01T11:23:14;8.40;99.90
22629;DHT22;11481;53.694;9.910;2023-04-01T11:26:02;8.40;99.90
22629;DHT22;11481;53.694;9.910;2023-04-01T11:28:55;8.40;99.90
22629;DHT22;11481;53.694;9.910;2023-04-01T11:40:20;8.50;99.90
22629;DHT22;11481;53.694;9.910;2023-04-01T11:42:57;8.60;99.90
22629;DHT22;11481;53.694;9.910;2023-04-01T11:53:58;8.30;99.90
22629;DHT22;11481;53.694;9.910;2023-04-01T12:05:03;8.30;99.90
22629;DHT22;11481;53.694;9.910;2023-04-01T12:08:09;8.20;99.90
22629;DHT22;11481;53.694;9.910;2023-04-01T12:10:55;8.20;99.90
22629;DHT22;11481;53.694;9.910;2023-04-01T12:13:37;8.10;99.90
22629;DHT22;11481;53.694;9.910;2023-04-01T12:16:29;8.00;99.90
22629;DHT22;11481;53.694;9.910;2023-04-01T12:24:49;8.00;99.90
22629;DHT22;11481;53.694;9.910;2023-04-01T12:36:00;7.70;99.90
22629;DHT22;11481;53.694;9.910;2023-04-01T12:41:46;7.90;99.90
22629;DHT22;11481;53.694;9.910;2023-04-01T12:55:42;7.90;99.90
22629;DHT22;11481;53.694;9.910;2023-04-01T12:58:40;7.70;99.90
22629;DHT22;11481;53.694;9.910;2023-04-01T13:04:33;7.50;99.90
22629;DHT22;11481;53.694;9.910;2023-04-01T13:07:41;7.60;99.90
22629;DHT22;11481;53.694;9.910;2023-04-01T13:10:27;7.60;99.90
22629;DHT22;11481;53.694;9.910;2023-04-01T13:16:00;7.70;99.90
22629;DHT22;11481;53.694;9.910;2023-04-01T13:21:34;7.70;99.90
22629;DHT22;11481;53.694;9.910;2023-04-01T13:24:46;7.70;99.90
22629;DHT22;11481;53.694;9.910;2023-04-01T13:27:37;7.70;99.90
22629;DHT22;11481;53.694;9.910;2023-04-01T13:32:50;7.70;99.90
22629;DHT22;11481;53.694;9.910;2023-04-01T13:35:47;7.70;99.90
22629;DHT22;11481;53.694;9.910;2023-04-01T13:44:42;7.70;99.90
22629;DHT22;11481;53.694;9.910;2023-04-01T13:53:17;7.80;99.90
22629;DHT22;11481;53.694;9.910;2023-04-01T14:08:00;7.80;99.90
22629;DHT22;11481;53.694;9.910;2023-04-01T14:10:40;7.60;99.90
22629;DHT22;11481;53.694;9.910;2023-04-01T14:13:36;7.60;99.90
22629;DHT22;11481;53.694;9.910;2023-04-01T14:19:00;7.50;99.90
22629;DHT22;11481;53.694;9.910;2023-04-01T14:21:42;7.60;99.90
22629;DHT22;11481;53.694;9.910;2023-04-01T14:27:38;7.50;99.90
22629;DHT22;11481;53.694;9.910;2023-04-01T14:33:25;7.30;99.90
22629;DHT22;11481;53.694;9.910;2023-04-01T14:36:37;7.20;99.90
22629;DHT22;11481;53.694;9.910;2023-04-01T14:47:59;7.30;99.90
22629;DHT22;11481;53.694;9.910;2023-04-01T14:50:46;7.30;99.90
22629;DHT22;11481;53.694;9.910;2023-04-01T14:55:58;7.20;99.90
22629;DHT22;11481;53.694;9.910;2023-04-01T14:58:42;7.30;99.90
22629;DHT22;11481;53.694;9.910;2023-04-01T15:01:42;7.30;99.90
22629;DHT22;11481;53.694;9.910;2023-04-01T15:09:52;7.40;99.90
22629;DHT22;11481;53.694;9.910;2023-04-01T15:12:30;7.30;99.90
22629;DHT22;11481;53.694;9.910;2023-04-01T15:15:23;7.40;99.90
22629;DHT22;11481;53.694;9.910;2023-04-01T15:18:08;7.40;99.90
22629;DHT22;11481;53.694;9.910;2023-04-01T15:23:23;7.40;99.90
22629;DHT22;11481;53.694;9.910;2023-04-01T15:28:55;7.20;99.90
22629;DHT22;11481;53.694;9.910;2023-04-01T15:31:54;7.10;99.90
22629;DHT22;11481;53.694;9.910;2023-04-01T15:34:43;7.00;99.90
22629;DHT22;11481;53.694;9.910;2023-04-01T15:40:17;6.80;99.90
22629;DHT22;11481;53.694;9.910;2023-04-01T15:48:23;7.00;99.90
22629;DHT22;11481;53.694;9.910;2023-04-01T15:51:08;7.10;99.90
22629;DHT22;11481;53.694;9.910;2023-04-01T15:53:53;7.00;99.90
22629;DHT22;11481;53.694;9.910;2023-04-01T15:56:53;6.90;99.90
22629;DHT22;11481;53.694;9.910;2023-04-01T16:05:05;7.00;99.90
22629;DHT22;11481;53.694;9.910;2023-04-01T16:13:22;6.80;99.90
22629;DHT22;11481;53.694;9.910;2023-04-01T16:16:03;6.90;99.90
22629;DHT22;11481;53.694;9.910;2023-04-01T16:24:15;6.80;99.90
22629;DHT22;11481;53.694;9.910;2023-04-01T16:27:00;6.80;99.90
22629;DHT22;11481;53.694;9.910;2023-04-01T16:29:49;6.80;99.90
22629;DHT22;11481;53.694;9.910;2023-04-01T16:32:22;6.60;99.90
22629;DHT22;11481;53.694;9.910;2023-04-01T16:37:49;6.70;99.90
22629;DHT22;11481;53.694;9.910;2023-04-01T16:42:51;6.70;99.90
22629;DHT22;11481;53.694;9.910;2023-04-01T16:47:58;6.70;99.90
22629;DHT22;11481;53.694;9.910;2023-04-01T16:50:38;6.60;99.90
22629;DHT22;11481;53.694;9.910;2023-04-01T16:58:42;6.50;99.90
22629;DHT22;11481;53.694;9.910;2023-04-01T17:01:19;6.50;99.90
22629;DHT22;11481;53.694;9.910;2023-04-01T17:03:53;6.40;99.90
22629;DHT22;11481;53.694;9.910;2023-04-01T17:06:36;6.40;99.90
22629;DHT22;11481;53.694;9.910;2023-04-01T17:09:38;6.30;99.90
22629;DHT22;11481;53.694;9.910;2023-04-01T17:12:20;6.30;99.90
22629;DHT22;11481;53.694;9.910;2023-04-01T17:31:10;6.40;99.90
22629;DHT22;11481;53.694;9.910;2023-04-01T17:33:48;6.30;99.90
22629;DHT22;11481;53.694;9.910;2023-04-01T17:39:49;6.20;99.90
22629;DHT22;11481;53.694;9.910;2023-04-01T17:45:33;6.00;99.90
22629;DHT22;11481;53.694;9.910;2023-04-01T17:59:39;5.90;99.90
22629;DHT22;11481;53.694;9.910;2023-04-01T18:02:25;5.90;99.90
22629;DHT22;11481;53.694;9.910;2023-04-01T18:10:29;5.80;99.90
22629;DHT22;11481;53.694;9.910;2023-04-01T18:21:02;5.80;99.90
22629;DHT22;11481;53.694;9.910;2023-04-01T18:23:41;5.80;99.90
22629;DHT22;11481;53.694;9.910;2023-04-01T18:26:24;5.80;99.90
22629;DHT22;11481;53.694;9.910;2023-04-01T18:29:02;5.80;99.90
22629;DHT22;11481;53.694;9.910;2023-04-01T18:31:37;5.70;99.90
22629;DHT22;11481;53.694;9.910;2023-04-01T18:34:19;5.70;99.90
22629;DHT22;11481;53.694;9.910;2023-04-01T18:36:51;5.80;99.90
22629;DHT22;11481;53.694;9.910;2023-04-01T18:39:30;5.70;99.90
22629;DHT22;11481;53.694;9.910;2023-04-01T18:42:28;5.70;99.90
22629;DHT22;11481;53.694;9.910;2023-04-01T18:47:44;5.80;99.90
22629;DHT22;11481;53.694;9.910;2023-04-01T18:50:43;5.70;99.90
22629;DHT22;11481;53.694;9.910;2023-04-01T18:53:29;5.60;99.90
22629;DHT22;11481;53.694;9.910;2023-04-01T18:56:06;5.70;99.90
22629;DHT22;11481;53.694;9.910;2023-04-01T18:58:51;5.70;99.90
22629;DHT22;11481;53.694;9.910;2023-04-01T19:04:39;5.60;99.90
22629;DHT22;11481;53.694;9.910;2023-04-01T19:10:31;5.60;99.90
22629;DHT22;11481;53.694;9.910;2023-04-01T19:27:18;5.40;99.90
22629;DHT22;11481;53.694;9.910;2023-04-01T19:30:08;5.40;99.90
22629;DHT22;11481;53.694;9.910;2023-04-01T19:32:53;5.30;99.90
22629;DHT22;11481;53.694;9.910;2023-04-01T19:38:52;5.30;99.90
22629;DHT22;11481;53.694;9.910;2023-04-01T19:41:39;5.20;99.90
22629;DHT22;11481;53.694;9.910;2023-04-01T19:44:34;5.20;99.90
22629;DHT22;11481;53.694;9.910;2023-04-01T19:55:02;4.90;99.90
22629;DHT22;11481;53.694;9.910;2023-04-01T19:57:57;4.90;99.90
22629;DHT22;11481;53.694;9.910;2023-04-01T20:00:51;4.90;99.90
22629;DHT22;11481;53.694;9.910;2023-04-01T20:03:49;5.00;99.90
22629;DHT22;11481;53.694;9.910;2023-04-01T20:06:28;4.90;99.90
22629;DHT22;11481;53.694;9.910;2023-04-01T20:12:30;5.00;99.90
22629;DHT22;11481;53.694;9.910;2023-04-01T20:15:21;5.00;99.90
22629;DHT22;11481;53.694;9.910;2023-04-01T20:17:51;4.80;99.90
22629;DHT22;11481;53.694;9.910;2023-04-01T20:20:21;4.70;99.90
22629;DHT22;11481;53.694;9.910;2023-04-01T20:25:46;4.70;99.90
22629;DHT22;11481;53.694;9.910;2023-04-01T20:39:20;4.50;99.90
22629;DHT22;11481;53.694;9.910;2023-04-01T20:53:43;4.40;99.90
22629;DHT22;11481;53.694;9.910;2023-04-01T20:56:32;4.40;99.90
22629;DHT22;11481;53.694;9.910;2023-04-01T20:59:16;4.30;99.90
22629;DHT22;11481;53.694;9.910;2023-04-01T21:07:53;4.20;99.90
22629;DHT22;11481;53.694;9.910;2023-04-01T21:10:46;4.20;99.90
22629;DHT22;11481;53.694;9.910;2023-04-01T21:16:20;4.10;99.90
22629;DHT22;11481;53.694;9.910;2023-04-01T21:21:58;4.00;99.90
22629;DHT22;11481;53.694;9.910;2023-04-01T21:24:44;3.90;99.90
22629;DHT22;11481;53.694;9.910;2023-04-01T21:30:20;3.90;99.90
22629;DHT22;11481;53.694;9.910;2023-04-01T21:35:40;3.90;99.90
22629;DHT22;11481;53.694;9.910;2023-04-01T21:46:53;3.80;99.90
22629;DHT22;11481;53.694;9.910;2023-04-01T22:06:54;3.60;99.90
22629;DHT22;11481;53.694;9.910;2023-04-01T22:09:34;3.60;99.90
22629;DHT22;11481;53.694;9.910;2023-04-01T22:12:14;4.20;99.90
22629;DHT22;11481;53.694;9.910;2023-04-01T22:14:52;3.00;99.90
22629;DHT22;11481;53.694;9.910;2023-04-01T22:17:38;3.60;99.90
22629;DHT22;11481;53.694;9.910;2023-04-01T22:20:21;3.50;99.90
22629;DHT22;11481;53.694;9.910;2023-04-01T22:23:21;3.50;99.90
22629;DHT22;11481;53.694;9.910;2023-04-01T22:31:03;3.40;99.90
22629;DHT22;11481;53.694;9.910;2023-04-01T22:33:56;3.40;99.90
22629;DHT22;11481;53.694;9.910;2023-04-01T22:36:40;3.40;99.90
22629;DHT22;11481;53.694;9.910;2023-04-01T22:39:32;3.40;99.90
22629;DHT22;11481;53.694;9.910;2023-04-01T22:42:14;3.40;99.90
22629;DHT22;11481;53.694;9.910;2023-04-01T22:50:21;3.40;99.90
22629;DHT22;11481;53.694;9.910;2023-04-01T22:52:58;3.30;99.90
22629;DHT22;11481;53.694;9.910;2023-04-01T22:55:29;3.30;99.90
22629;DHT22;11481;53.694;9.910;2023-04-01T22:58:08;3.30;99.90
22629;DHT22;11481;53.694;9.910;2023-04-01T23:00:43;3.30;99.90
22629;DHT22;11481;53.694;9.910;2023-04-01T23:03:34;3.30;99.90
22629;DHT22;11481;53.694;9.910;2023-04-01T23:06:04;3.30;99.90
22629;DHT22;11481;53.694;9.910;2023-04-01T23:09:09;3.30;99.90
22629;DHT22;11481;53.694;9.910;2023-04-01T23:11:59;3.30;99.90
22629;DHT22;11481;53.694;9.910;2023-04-01T23:20:13;3.10;99.90
22629;DHT22;11481;53.694;9.910;2023-04-01T23:25:47;3.10;99.90
22629;DHT22;11481;53.694;9.910;2023-04-01T23:28:54;3.20;99.90
22629;DHT22;11481;53.694;9.910;2023-04-01T23:31:31;3.20;99.90
22629;DHT22;11481;53.694;9.910;2023-04-01T23:34:01;3.20;99.90
22629;DHT22;11481;53.694;9.910;2023-04-01T23:36:30;3.20;99.90
22629;DHT22;11481;53.694;9.910;2023-04-01T23:39:05;3.20;99.90
22629;DHT22;11481;53.694;9.910;2023-04-01T23:41:32;3.20;99.90
22629;DHT22;11481;53.694;9.910;2023-04-01T23:44:07;3.20;99.90
22629;DHT22;11481;53.694;9.910;2023-04-01T23:46:35;3.20;99.90
22629;DHT22;11481;53.694;9.910;2023-04-01T23:49:03;3.20;99.90
22629;DHT22;11481;53.694;9.910;2023-04-01T23:51:39;3.20;99.90
22629;DHT22;11481;53.694;9.910;2023-04-01T23:54:26;3.20;99.90
22629;DHT22;11481;53.694;9.910;2023-04-01T23:56:56;3.10;99.90
22629;DHT22;11481;53.694;9.910;2023-04-01T23:59:35;3.20;99.90
